Pagina principale
METAR-TAF:

METAR-TAF

Aeroporti :

Aeroporto Internazionale Sir Seretse Khama

Gaborone, Botswana

latitudine: 24-13S, longitudine: 025-55E, altezza: 1005 m

Osservazione

Il bollettino è stato emesso 3 ore e 8 minuti fa, alle 05:00 UTC
Vento 5 kt da est
Temperature 13°C
Umidità 54%
Pressione 1019 hPa
Visibilità 10 km o più
nessuna nube inferiore a 1500 m e nessun cumulonembo

METAR: FBSK 210500Z 10005KT CAVOK 13/04 Q1019 NOSIG

Ora: 10:08 (08:08 UTC)

Previsione

Il bollettino è stato emesso 5 ore e 8 minuti fa, alle 03:00 UTC
Previsione valida dal 21 alle 06 UTC al 22 alle 12 UTC
Vento 10 kt da nord
Visibilità 10 km o più
nessuna nube inferiore a 1500 m e nessun cumulonembo

TAF: FBSK 210300Z 2106/2212 36010KT CAVOK

Osservazioni e previsioni meteorologiche di più di 4000 aeroporti (messaggi METAR e TAF).

Le stazioni disponibili sono rappresentate dai dischi gialli e rossi sulla carta.

Puntare il mouse per vedere il nome della stazione.

Clicca sopra per visualizzare le osservazioni e previsioni meteorologiche.

Per cambiare la mappa : fare clic sui pulsanti verdi con una croce nera per ingrandire, il pulsante verde con un trattino per diminuire, o sulla freccia verde per le mappe adiacenti.


METAR-TAF: